createdAt,value
2023-01-30T00:01:33.236Z,69.56
2023-01-30T00:06:35.077Z,69.62
2023-01-30T00:11:39.994Z,69.75
2023-01-30T00:16:55.289Z,70.00
2023-01-30T00:21:57.576Z,69.93
2023-01-30T00:27:08.484Z,70.21
2023-01-30T00:32:16.151Z,70.56
2023-01-30T00:37:29.277Z,71.13
2023-01-30T00:43:54.657Z,72.09
2023-01-30T00:49:17.196Z,73.17
2023-01-30T00:54:30.900Z,73.92
2023-01-30T00:59:42.179Z,74.58
2023-01-30T01:05:46.357Z,75.33
2023-01-30T01:12:08.455Z,75.75
2023-01-30T01:18:29.668Z,76.05
2023-01-30T01:24:53.589Z,76.67
2023-01-30T01:30:56.654Z,76.82
2023-01-30T01:36:29.292Z,76.93
2023-01-30T01:41:41.162Z,76.76
2023-01-30T01:46:51.678Z,76.47
2023-01-30T01:52:15.828Z,76.63
2023-01-30T01:57:25.072Z,76.83
2023-01-30T02:02:27.400Z,76.74
2023-01-30T02:07:41.224Z,76.78
2023-01-30T02:12:47.365Z,76.69
2023-01-30T02:17:59.451Z,76.47
2023-01-30T02:23:23.158Z,76.07
2023-01-30T02:28:59.612Z,75.90
2023-01-30T02:34:32.835Z,75.79
2023-01-30T02:39:46.941Z,75.41
2023-01-30T02:45:16.742Z,75.40
2023-01-30T02:50:36.074Z,75.29
2023-01-30T02:55:44.234Z,75.24
2023-01-30T03:01:37.180Z,75.16
2023-01-30T03:07:01.031Z,74.84
2023-01-30T03:12:31.067Z,74.69
2023-01-30T03:17:57.195Z,74.56
2023-01-30T03:23:13.905Z,74.54
2023-01-30T03:28:21.533Z,74.74
2023-01-30T03:33:36.350Z,74.78
2023-01-30T03:38:49.456Z,74.69
2023-01-30T03:43:54.601Z,74.65
2023-01-30T03:49:21.233Z,74.48
2023-01-30T03:54:23.248Z,74.31
2023-01-30T03:59:37.084Z,74.16
2023-01-30T04:04:53.840Z,74.16
2023-01-30T04:10:02.378Z,73.82
2023-01-30T04:15:14.600Z,73.71
2023-01-30T04:21:20.342Z,73.31
2023-01-30T04:26:32.219Z,73.40
2023-01-30T04:31:40.133Z,73.45
2023-01-30T04:36:55.804Z,73.32
2023-01-30T04:42:03.907Z,73.15
2023-01-30T04:47:20.372Z,72.91
2023-01-30T04:52:30.539Z,72.85
2023-01-30T04:57:40.111Z,72.72
2023-01-30T05:02:47.397Z,72.61
2023-01-30T05:07:52.143Z,72.22
2023-01-30T05:13:08.380Z,72.29
2023-01-30T05:18:15.297Z,72.29
2023-01-30T05:23:32.746Z,72.07
2023-01-30T05:28:43.250Z,71.75
2023-01-30T05:33:51.732Z,71.71
2023-01-30T05:38:56.181Z,71.50
2023-01-30T05:44:03.684Z,71.38
2023-01-30T05:49:06.916Z,70.98
2023-01-30T05:54:25.384Z,71.03
2023-01-30T05:59:30.113Z,71.29
2023-01-30T06:04:38.331Z,71.39
2023-01-30T06:09:40.443Z,71.34
2023-01-30T06:14:53.139Z,71.32
2023-01-30T06:20:00.682Z,71.34
2023-01-30T06:25:31.270Z,71.33
2023-01-30T06:30:52.181Z,71.45
2023-01-30T06:35:54.141Z,70.94
2023-01-30T06:40:58.258Z,71.00
2023-01-30T06:46:02.340Z,70.59
2023-01-30T06:51:10.246Z,70.58
2023-01-30T06:56:12.129Z,70.44
2023-01-30T07:01:18.243Z,70.50
2023-01-30T07:06:23.151Z,70.46
2023-01-30T07:11:25.620Z,70.35
2023-01-30T07:16:28.995Z,70.32
2023-01-30T07:21:30.616Z,70.22
2023-01-30T07:26:32.118Z,70.49
2023-01-30T07:31:33.864Z,70.31
2023-01-30T07:36:35.453Z,70.19
2023-01-30T07:41:36.880Z,70.60
2023-01-30T07:46:38.507Z,70.50
2023-01-30T07:51:40.015Z,70.50
2023-01-30T07:56:41.607Z,70.50
2023-01-30T08:01:43.551Z,70.63
2023-01-30T08:06:45.173Z,70.65
2023-01-30T08:11:46.853Z,70.47
2023-01-30T08:16:48.680Z,69.42
2023-01-30T08:21:50.198Z,66.03
2023-01-30T08:26:51.658Z,64.54
2023-01-30T08:31:57.368Z,65.51
2023-01-30T08:36:59.170Z,66.38
2023-01-30T08:42:01.119Z,67.14
2023-01-30T08:47:02.976Z,67.81
2023-01-30T08:52:04.620Z,68.27
2023-01-30T08:57:06.349Z,68.78
2023-01-30T09:02:11.908Z,68.73
2023-01-30T09:07:13.770Z,68.90
2023-01-30T09:12:15.784Z,68.89
2023-01-30T09:17:17.399Z,68.85
2023-01-30T09:22:18.846Z,69.03
2023-01-30T09:27:20.149Z,68.77
2023-01-30T09:32:21.900Z,68.80
2023-01-30T09:37:23.699Z,68.66
2023-01-30T09:42:43.272Z,69.67
2023-01-30T09:48:34.977Z,71.34
2023-01-30T09:53:56.480Z,72.82
2023-01-30T10:00:00.309Z,73.85
2023-01-30T10:05:30.419Z,75.06
2023-01-30T10:10:49.533Z,75.45
2023-01-30T10:16:31.242Z,76.24
2023-01-30T10:21:54.254Z,76.57
2023-01-30T10:26:59.098Z,76.66
2023-01-30T10:32:13.501Z,76.44
2023-01-30T10:37:23.690Z,75.84
2023-01-30T10:42:28.250Z,75.40
2023-01-30T10:47:46.999Z,74.57
2023-01-30T10:53:01.623Z,73.64
2023-01-30T10:58:35.209Z,73.13
2023-01-30T11:03:39.766Z,73.31
2023-01-30T11:08:41.227Z,73.33
2023-01-30T11:13:45.821Z,73.71
2023-01-30T11:19:18.672Z,74.11
2023-01-30T11:24:18.852Z,74.16
2023-01-30T11:29:29.982Z,74.39
2023-01-30T11:34:31.691Z,75.10
2023-01-30T11:39:52.656Z,75.86
2023-01-30T11:45:16.049Z,76.18
2023-01-30T11:50:24.896Z,76.36
2023-01-30T11:55:34.834Z,75.97
2023-01-30T12:00:42.954Z,75.22
2023-01-30T12:05:47.100Z,74.59
2023-01-30T12:10:57.933Z,74.04
2023-01-30T12:16:12.739Z,73.89
2023-01-30T12:21:14.088Z,74.32
2023-01-30T12:26:26.618Z,74.99
2023-01-30T12:31:49.286Z,75.93
2023-01-30T12:37:08.373Z,77.24
2023-01-30T12:42:31.211Z,79.15
2023-01-30T12:48:09.738Z,79.98
2023-01-30T12:53:18.176Z,80.41
2023-01-30T12:58:43.182Z,80.47
2023-01-30T13:04:13.311Z,79.95
2023-01-30T13:09:36.214Z,79.31
2023-01-30T13:15:15.103Z,78.49
2023-01-30T13:20:35.809Z,77.64
2023-01-30T13:25:51.087Z,76.56
2023-01-30T13:30:55.122Z,75.23
2023-01-30T13:36:07.984Z,74.18
2023-01-30T13:41:13.027Z,73.47
2023-01-30T13:46:23.294Z,72.80
2023-01-30T13:51:43.075Z,71.81
2023-01-30T13:57:40.055Z,71.15
2023-01-30T14:03:04.168Z,70.92
2023-01-30T14:08:11.907Z,70.75
2023-01-30T14:13:15.776Z,70.29
2023-01-30T14:18:28.127Z,70.37
2023-01-30T14:23:37.743Z,70.60
2023-01-30T14:28:45.573Z,70.97
2023-01-30T14:33:51.113Z,71.14
2023-01-30T14:39:39.657Z,71.28
2023-01-30T14:45:00.184Z,71.53
2023-01-30T14:50:02.680Z,71.72
2023-01-30T14:55:05.302Z,71.84
2023-01-30T15:00:28.656Z,71.95
2023-01-30T15:05:53.553Z,71.87
2023-01-30T15:11:54.130Z,71.93
2023-01-30T15:18:15.887Z,72.26
2023-01-30T15:24:02.261Z,72.77
2023-01-30T15:29:47.517Z,73.10
2023-01-30T15:35:39.849Z,73.20
2023-01-30T15:40:46.982Z,73.30
2023-01-30T15:46:40.206Z,73.25
2023-01-30T15:51:42.352Z,73.22
2023-01-30T15:57:22.709Z,73.16
2023-01-30T16:02:45.047Z,73.08
2023-01-30T16:07:57.396Z,73.01
2023-01-30T16:13:21.098Z,73.05
2023-01-30T16:19:12.650Z,72.97
2023-01-30T16:24:56.658Z,73.03
2023-01-30T16:30:24.159Z,72.91
2023-01-30T16:35:56.501Z,73.02
2023-01-30T16:42:13.246Z,72.96
2023-01-30T16:49:01.847Z,73.04
2023-01-30T16:55:08.718Z,73.26
2023-01-30T17:01:58.510Z,73.82
2023-01-30T17:09:07.317Z,74.31
2023-01-30T17:16:00.508Z,74.61
2023-01-30T17:22:25.643Z,74.74
2023-01-30T17:28:57.753Z,75.35
2023-01-30T17:35:04.437Z,75.70
2023-01-30T17:40:46.080Z,75.79
2023-01-30T17:47:06.647Z,75.77
2023-01-30T17:54:02.203Z,75.49
2023-01-30T18:00:54.040Z,75.40
2023-01-30T18:07:46.680Z,75.12
2023-01-30T18:14:15.966Z,74.88
2023-01-30T18:20:53.088Z,74.58
2023-01-30T18:27:34.831Z,74.58
2023-01-30T18:33:55.381Z,74.69
2023-01-30T18:40:08.274Z,74.63
2023-01-30T18:46:40.816Z,74.45
2023-01-30T18:52:58.945Z,74.14
2023-01-30T18:59:13.721Z,73.93
2023-01-30T19:05:09.357Z,73.77
2023-01-30T19:11:50.503Z,73.65
2023-01-30T19:17:16.699Z,73.34
2023-01-30T19:22:57.180Z,73.12
2023-01-30T19:29:03.205Z,73.09
2023-01-30T19:34:39.324Z,73.11
2023-01-30T19:40:31.389Z,73.23
2023-01-30T19:45:57.412Z,73.38
2023-01-30T19:52:02.503Z,73.61
2023-01-30T19:57:29.945Z,73.75
2023-01-30T20:03:30.249Z,73.92
2023-01-30T20:09:44.506Z,73.96
2023-01-30T20:15:39.959Z,74.26
2023-01-30T20:22:07.197Z,75.49
2023-01-30T20:27:28.867Z,76.28
2023-01-30T20:33:42.443Z,77.35
2023-01-30T20:39:41.717Z,77.98
2023-01-30T20:45:41.927Z,78.02
2023-01-30T20:51:01.794Z,78.09
2023-01-30T20:57:47.679Z,78.07
2023-01-30T21:03:56.365Z,77.97
2023-01-30T21:09:40.045Z,77.60
2023-01-30T21:15:32.741Z,77.83
2023-01-30T21:21:39.120Z,77.65
2023-01-30T21:28:06.972Z,77.46
2023-01-30T21:33:55.370Z,77.26
2023-01-30T21:40:18.901Z,77.03
2023-01-30T21:46:37.696Z,77.03
2023-01-30T21:52:13.094Z,76.78
2023-01-30T21:58:38.431Z,76.45
2023-01-30T22:05:17.407Z,76.29
2023-01-30T22:11:51.076Z,76.47
2023-01-30T22:18:10.655Z,76.39
2023-01-30T22:24:38.667Z,76.79
2023-01-30T22:31:44.376Z,76.93
2023-01-30T22:37:46.524Z,77.44
2023-01-30T22:43:32.193Z,78.24
2023-01-30T22:49:24.881Z,78.75
2023-01-30T22:55:26.372Z,79.24
2023-01-30T23:01:52.332Z,79.82
2023-01-30T23:08:56.174Z,80.86
2023-01-30T23:15:29.648Z,81.22
2023-01-30T23:21:35.572Z,81.57
2023-01-30T23:28:00.136Z,82.00
2023-01-30T23:34:31.010Z,82.42
2023-01-30T23:41:08.279Z,82.33
2023-01-30T23:48:11.199Z,82.56
2023-01-30T23:54:49.216Z,82.94
